Time;durP1;ratioP1;P1;durP2;ratioP2;P2;SDS_P1;SDS_P2;PMS_P1;PMS_P2;Temp;Humidity;BMP_temperature;BMP_pressure;BME280_temperature;BME280_humidity;BME280_pressure;Samples;Min_cycle;Max_cycle;Signal;HPM_P1;HPM_P2
2021/10/02 00:44:43;;;;;;;2.90;1.55;;;17.70;71.90;;;;;;10499822;28;20032;-58
2021/10/02 00:49:44;;;;;;;4.57;1.85;;;17.70;72.10;;;;;;10509222;28;20369;-57
2021/10/02 00:54:46;;;;;;;3.17;1.80;;;17.70;71.90;;;;;;10499019;28;20060;-57
2021/10/02 00:59:48;;;;;;;2.80;1.92;;;17.70;71.90;;;;;;10498741;28;20052;-57
2021/10/02 01:05:27;;;;;;;2.97;1.40;;;17.60;71.80;;;;;;10498107;28;20060;-58
2021/10/02 01:10:57;;;;;;;3.38;1.75;;;17.60;72.00;;;;;;10497247;28;20041;-58
2021/10/02 01:16:13;;;;;;;2.25;1.40;;;17.60;72.00;;;;;;10497019;28;20028;-58
2021/10/02 01:21:39;;;;;;;3.03;1.60;;;17.60;72.00;;;;;;10498039;28;20047;-58
2021/10/02 01:27:11;;;;;;;2.50;1.70;;;17.60;71.90;;;;;;10483090;28;20040;-57
2021/10/02 01:32:22;;;;;;;2.28;1.52;;;17.60;71.90;;;;;;10496271;28;20063;-57
2021/10/02 01:47:55;;;;;;;2.63;1.40;;;17.60;72.00;;;;;;10497046;28;20072;-58
2021/10/02 01:53:04;;;;;;;2.20;1.63;;;17.60;71.90;;;;;;10497330;28;20032;-58
2021/10/02 01:58:09;;;;;;;3.15;2.00;;;17.60;71.90;;;;;;10495796;28;20033;-58
2021/10/02 02:03:15;;;;;;;2.97;1.88;;;17.60;71.80;;;;;;10497210;28;20036;-57
2021/10/02 02:08:19;;;;;;;2.03;1.48;;;17.60;71.90;;;;;;10495514;28;20043;-58
2021/10/02 02:13:21;;;;;;;2.28;2.00;;;17.60;71.90;;;;;;10496614;28;20025;-57
2021/10/02 02:18:24;;;;;;;2.78;2.10;;;17.60;72.00;;;;;;10500247;28;20119;-57
2021/10/02 02:23:26;;;;;;;3.42;1.88;;;17.60;71.90;;;;;;10505209;28;20500;-58
2021/10/02 02:28:27;;;;;;;3.13;1.85;;;17.60;71.90;;;;;;10499072;28;20041;-57
2021/10/02 02:33:28;;;;;;;3.10;2.00;;;17.60;71.80;;;;;;10503479;28;20047;-57
2021/10/02 02:38:30;;;;;;;3.67;1.98;;;17.60;72.00;;;;;;10504490;28;20041;-58
2021/10/02 02:43:35;;;;;;;3.40;2.60;;;17.60;72.00;;;;;;10504396;28;20067;-57
2021/10/02 02:48:45;;;;;;;3.03;2.15;;;17.60;72.00;;;;;;10508807;28;20025;-57
2021/10/02 02:54:19;;;;;;;3.22;2.08;;;17.60;72.00;;;;;;10506288;28;20035;-58
2021/10/02 02:59:28;;;;;;;3.38;2.33;;;17.60;72.00;;;;;;10502349;28;20032;-58
2021/10/02 03:04:34;;;;;;;3.15;2.45;;;17.60;71.90;;;;;;10502382;28;20089;-57
2021/10/02 03:09:40;;;;;;;3.30;2.38;;;17.60;71.90;;;;;;10501955;28;20043;-57
2021/10/02 03:14:45;;;;;;;3.00;2.05;;;17.60;72.00;;;;;;10501847;28;20125;-57
2021/10/02 03:19:48;;;;;;;2.55;2.17;;;17.60;72.00;;;;;;10501437;28;20040;-57
2021/10/02 03:24:49;;;;;;;2.90;2.30;;;17.60;72.00;;;;;;10501841;28;20028;-57
2021/10/02 03:29:50;;;;;;;2.67;2.22;;;17.60;72.20;;;;;;10492059;28;20044;-57
2021/10/02 03:34:54;;;;;;;4.95;2.38;;;17.60;72.10;;;;;;10484162;28;20044;-57
2021/10/02 03:39:55;;;;;;;3.35;2.53;;;17.60;72.10;;;;;;10500375;28;20040;-58
2021/10/02 03:44:56;;;;;;;3.70;2.60;;;17.60;72.10;;;;;;10501646;28;20333;-57
2021/10/02 03:49:57;;;;;;;2.80;2.20;;;17.50;72.10;;;;;;10510025;28;20071;-57
2021/10/02 03:54:57;;;;;;;3.75;2.45;;;17.50;72.10;;;;;;10500459;28;20064;-57
2021/10/02 03:59:58;;;;;;;3.20;2.22;;;17.60;72.20;;;;;;10500102;28;20028;-58
2021/10/02 04:04:59;;;;;;;2.80;2.35;;;17.60;72.30;;;;;;10500318;28;20385;-58
2021/10/02 04:10:00;;;;;;;5.38;2.70;;;17.50;72.20;;;;;;10499070;28;20546;-58
2021/10/02 04:15:01;;;;;;;4.13;2.80;;;17.50;72.20;;;;;;10499857;28;20115;-57
2021/10/02 04:20:03;;;;;;;3.28;2.40;;;17.50;72.70;;;;;;10498709;28;20381;-58
2021/10/02 04:25:05;;;;;;;3.92;2.63;;;17.50;72.10;;;;;;10497847;28;20122;-57
2021/10/02 04:30:06;;;;;;;3.30;2.47;;;17.50;72.20;;;;;;10495418;28;20107;-58
2021/10/02 04:35:07;;;;;;;3.45;2.80;;;17.50;72.10;;;;;;10497148;28;20036;-58
2021/10/02 04:40:09;;;;;;;4.13;2.95;;;17.50;72.20;;;;;;10496882;28;20031;-57
2021/10/02 04:45:09;;;;;;;3.65;2.95;;;17.50;72.30;;;;;;10496022;28;20139;-57
2021/10/02 04:50:10;;;;;;;4.05;2.88;;;17.50;72.00;;;;;;10499752;28;20030;-58
2021/10/02 04:55:11;;;;;;;4.82;3.28;;;17.50;72.10;;;;;;10497687;28;20047;-58
2021/10/02 05:00:12;;;;;;;4.13;2.80;;;17.50;72.20;;;;;;10494771;28;20068;-57
2021/10/02 05:05:12;;;;;;;4.90;3.05;;;17.50;72.40;;;;;;10495377;28;20124;-57
2021/10/02 05:10:13;;;;;;;5.20;3.50;;;17.50;72.30;;;;;;10480340;28;20508;-58
2021/10/02 05:15:14;;;;;;;11.07;4.13;;;17.50;72.20;;;;;;10497217;28;20039;-57
2021/10/02 05:20:14;;;;;;;4.88;3.25;;;17.50;72.20;;;;;;10483978;28;20627;-58
2021/10/02 05:25:15;;;;;;;8.43;4.45;;;17.50;72.20;;;;;;10488626;28;20481;-55
2021/10/02 05:30:16;;;;;;;19.95;5.20;;;17.50;72.20;;;;;;10482253;28;20487;-58
2021/10/02 05:35:17;;;;;;;19.30;5.00;;;17.60;72.40;;;;;;10487500;28;20033;-58
2021/10/02 05:40:18;;;;;;;11.25;3.78;;;17.80;72.90;;;;;;10489979;28;20033;-57
2021/10/02 05:45:19;;;;;;;10.88;3.80;;;17.80;72.70;;;;;;10495847;28;20028;-57
2021/10/02 05:50:19;;;;;;;8.18;4.18;;;17.80;72.30;;;;;;10505543;28;20024;-58
2021/10/02 05:55:20;;;;;;;15.63;4.72;;;17.80;72.60;;;;;;10495428;28;20094;-58
2021/10/02 06:00:21;;;;;;;9.65;4.90;;;17.90;73.00;;;;;;10494762;28;20115;-58
2021/10/02 06:05:26;;;;;;;12.27;4.82;;;17.90;72.70;;;;;;10493265;28;20116;-58
2021/10/02 06:10:27;;;;;;;15.60;4.82;;;17.90;72.70;;;;;;10492988;28;20020;-59
2021/10/02 06:15:27;;;;;;;11.93;4.72;;;17.90;72.50;;;;;;10493729;28;20060;-57
2021/10/02 06:20:28;;;;;;;11.60;5.78;;;17.90;72.60;;;;;;10487771;28;20039;-58
2021/10/02 06:25:29;;;;;;;12.02;4.95;;;17.80;73.10;;;;;;10478993;28;20071;-57
2021/10/02 06:30:29;;;;;;;14.23;5.57;;;17.80;73.20;;;;;;10496064;28;20060;-58
2021/10/02 06:35:30;;;;;;;15.57;5.78;;;17.90;73.00;;;;;;10496392;28;20504;-58
2021/10/02 06:40:31;;;;;;;12.68;5.13;;;17.90;72.60;;;;;;10495801;28;20063;-58
2021/10/02 06:45:32;;;;;;;11.60;4.72;;;17.90;72.80;;;;;;10494940;28;20033;-58
2021/10/02 06:50:33;;;;;;;12.88;5.65;;;17.90;72.90;;;;;;10486358;28;20028;-59
2021/10/02 06:55:34;;;;;;;13.50;5.68;;;17.80;72.90;;;;;;10492795;28;20489;-59
2021/10/02 07:00:36;;;;;;;12.63;5.50;;;17.80;72.80;;;;;;10493455;28;20025;-60
2021/10/02 07:05:37;;;;;;;14.57;6.95;;;17.90;73.10;;;;;;10500805;28;20032;-56
2021/10/02 07:10:37;;;;;;;22.23;7.38;;;17.90;73.20;;;;;;10492107;28;20104;-60
2021/10/02 07:15:38;;;;;;;18.25;6.13;;;17.90;73.50;;;;;;10483824;28;20032;-60
2021/10/02 07:20:39;;;;;;;12.02;6.72;;;17.90;73.80;;;;;;10498704;28;20039;-61
2021/10/02 07:25:40;;;;;;;14.10;6.32;;;17.80;73.40;;;;;;10500229;28;20021;-60
2021/10/02 07:30:41;;;;;;;18.00;7.13;;;17.80;73.30;;;;;;10499612;28;20094;-59
2021/10/02 07:35:42;;;;;;;23.10;8.10;;;17.80;73.40;;;;;;10493569;28;20021;-67
2021/10/02 07:40:44;;;;;;;15.93;7.15;;;17.90;73.30;;;;;;10500073;28;20127;-66
2021/10/02 07:45:45;;;;;;;19.25;7.13;;;18.00;73.20;;;;;;10499680;28;20032;-62
2021/10/02 07:50:47;;;;;;;15.57;7.10;;;18.00;73.10;;;;;;10502211;28;20055;-62
2021/10/02 07:55:49;;;;;;;22.33;7.85;;;17.90;73.30;;;;;;10520076;28;20063;-62
2021/10/02 08:00:55;;;;;;;12.77;6.78;;;18.00;73.30;;;;;;10498740;28;20388;-59
2021/10/02 08:05:55;;;;;;;21.33;7.22;;;18.00;73.20;;;;;;10497802;28;20060;-67
2021/10/02 08:10:56;;;;;;;20.80;7.15;;;18.00;73.10;;;;;;10499906;28;20052;-68
2021/10/02 08:16:00;;;;;;;21.30;7.57;;;17.90;72.90;;;;;;10496758;28;20037;-65
2021/10/02 08:21:02;;;;;;;18.58;7.18;;;17.90;73.00;;;;;;10496299;28;20429;-67
2021/10/02 08:26:05;;;;;;;17.67;6.43;;;17.90;73.10;;;;;;10496462;28;20373;-68
2021/10/02 08:31:06;;;;;;;16.48;6.65;;;17.80;73.20;;;;;;10494513;28;20060;-67
2021/10/02 08:36:08;;;;;;;17.05;6.45;;;17.80;73.20;;;;;;10493794;28;20107;-66
2021/10/02 08:41:10;;;;;;;14.13;6.55;;;17.80;73.00;;;;;;10510618;28;20479;-66
2021/10/02 08:46:11;;;;;;;14.43;6.95;;;17.80;72.90;;;;;;10497127;28;20025;-67
2021/10/02 08:51:11;;;;;;;11.07;6.57;;;17.80;72.90;;;;;;10502172;28;20066;-67
2021/10/02 08:56:13;;;;;;;11.18;6.35;;;17.80;72.80;;;;;;10497825;28;20056;-67
2021/10/02 09:01:15;;;;;;;13.90;6.30;;;17.80;72.80;;;;;;10497651;28;20105;-66
2021/10/02 09:06:15;;;;;;;10.95;7.05;;;17.80;72.80;;;;;;10497403;28;20448;-68
2021/10/02 09:11:16;;;;;;;9.48;5.80;;;17.80;72.50;;;;;;10498349;28;20104;-68
2021/10/02 09:16:17;;;;;;;11.35;6.13;;;17.80;72.30;;;;;;10498312;28;20078;-68
2021/10/02 09:21:18;;;;;;;12.23;6.18;;;17.90;72.60;;;;;;10497856;28;20036;-66
2021/10/02 09:26:44;;;;;;;12.82;6.10;;;17.80;72.20;;;;;;10496416;28;20793;-67
2021/10/02 09:31:45;;;;;;;8.85;5.63;;;17.90;72.20;;;;;;10497799;28;20045;-67
2021/10/02 09:36:49;;;;;;;8.60;5.25;;;17.90;72.20;;;;;;10496343;28;20043;-67
2021/10/02 09:41:52;;;;;;;8.52;6.18;;;17.90;72.10;;;;;;10496050;28;20481;-68
2021/10/02 09:46:53;;;;;;;11.23;6.13;;;17.90;71.90;;;;;;10495942;28;20037;-67
2021/10/02 09:51:53;;;;;;;10.40;5.70;;;17.90;71.90;;;;;;10508392;28;20426;-67
2021/10/02 09:57:27;;;;;;;12.60;5.25;;;17.90;71.90;;;;;;10495949;28;20028;-68
2021/10/02 10:02:29;;;;;;;7.22;5.32;;;17.90;72.00;;;;;;10473307;28;20139;-68
2021/10/02 10:07:30;;;;;;;9.68;5.55;;;17.90;72.10;;;;;;10496779;28;20025;-67
2021/10/02 10:12:31;;;;;;;6.78;4.97;;;17.80;72.50;;;;;;10496578;28;20466;-67
2021/10/02 10:17:32;;;;;;;9.68;5.28;;;17.80;72.50;;;;;;10495421;28;20025;-68
2021/10/02 10:22:34;;;;;;;12.13;5.97;;;17.80;72.70;;;;;;10495592;28;20427;-68
2021/10/02 10:27:46;;;;;;;6.38;5.32;;;17.80;72.60;;;;;;10496267;28;20094;-68
2021/10/02 10:33:09;;;;;;;10.15;5.47;;;17.80;72.70;;;;;;10496081;28;20044;-67
2021/10/02 10:38:21;;;;;;;9.18;4.95;;;17.80;72.70;;;;;;10499201;28;20034;-68
2021/10/02 10:43:22;;;;;;;6.55;4.10;;;17.80;72.50;;;;;;10503005;28;20036;-68
2021/10/02 10:48:23;;;;;;;11.40;5.47;;;17.80;72.00;;;;;;10507771;28;20480;-66
2021/10/02 10:53:39;;;;;;;7.20;5.07;;;17.80;72.10;;;;;;10511061;28;20106;-68
2021/10/02 10:58:41;;;;;;;7.63;4.75;;;17.90;72.50;;;;;;10502525;28;20035;-67
2021/10/02 11:03:47;;;;;;;8.18;4.82;;;17.80;72.50;;;;;;10502411;28;20086;-68
2021/10/02 11:09:07;;;;;;;8.60;4.50;;;17.80;72.60;;;;;;10503417;28;20111;-68
2021/10/02 11:14:08;;;;;;;7.47;4.80;;;17.80;72.50;;;;;;10501923;28;20029;-68
2021/10/02 11:19:33;;;;;;;5.47;4.70;;;17.80;72.60;;;;;;10501702;28;20468;-68
2021/10/02 11:24:41;;;;;;;5.63;4.85;;;17.80;72.60;;;;;;10501805;28;20055;-67
2021/10/02 11:29:44;;;;;;;4.82;3.85;;;17.80;72.50;;;;;;10501252;28;20033;-67
2021/10/02 11:35:31;;;;;;;6.85;3.88;;;17.80;72.50;;;;;;10500765;28;20036;-68
2021/10/02 11:40:41;;;;;;;7.30;4.28;;;17.80;72.50;;;;;;10501424;28;20032;-67
2021/10/02 11:45:53;;;;;;;4.03;3.20;;;17.80;72.40;;;;;;10501711;28;20033;-67
2021/10/02 11:51:21;;;;;;;6.25;3.97;;;17.80;72.10;;;;;;10513882;28;20389;-66
2021/10/02 11:56:29;;;;;;;5.45;3.78;;;17.80;71.90;;;;;;10500549;28;20017;-68
2021/10/02 12:01:43;;;;;;;7.38;4.30;;;17.80;71.90;;;;;;10500221;28;20029;-68
2021/10/02 12:06:46;;;;;;;4.72;3.42;;;17.90;71.80;;;;;;10482019;28;20389;-68
2021/10/02 12:11:52;;;;;;;4.25;3.50;;;17.90;72.20;;;;;;10499922;28;20048;-67
2021/10/02 12:17:03;;;;;;;5.18;3.63;;;17.90;72.20;;;;;;10500752;28;20124;-68
2021/10/02 12:22:06;;;;;;;3.92;2.97;;;17.90;71.60;;;;;;10500520;28;20469;-68
2021/10/02 12:27:16;;;;;;;5.22;3.60;;;18.00;71.60;;;;;;10475546;28;20119;-66
2021/10/02 12:32:19;;;;;;;4.68;3.08;;;18.10;71.40;;;;;;10499354;28;20051;-68
2021/10/02 12:37:28;;;;;;;5.65;3.50;;;18.10;71.40;;;;;;10500213;28;20044;-67
2021/10/02 12:42:33;;;;;;;5.38;3.20;;;18.10;71.30;;;;;;10498673;28;20036;-68
2021/10/02 12:47:34;;;;;;;5.10;3.63;;;18.10;71.30;;;;;;10499632;28;20032;-68
2021/10/02 12:52:37;;;;;;;3.95;2.88;;;18.10;71.40;;;;;;10509817;28;20021;-67
2021/10/02 12:57:39;;;;;;;4.18;2.70;;;18.00;71.40;;;;;;10497972;28;20028;-68
2021/10/02 13:02:49;;;;;;;3.83;2.90;;;18.00;71.40;;;;;;10498210;28;20546;-68
2021/10/02 13:08:02;;;;;;;2.95;2.40;;;18.00;71.40;;;;;;10498622;28;20120;-67
2021/10/02 13:13:12;;;;;;;4.40;2.72;;;18.00;71.40;;;;;;10498584;28;20031;-67
2021/10/02 13:18:19;;;;;;;3.95;2.50;;;18.00;71.50;;;;;;10497562;28;20494;-68
2021/10/02 13:23:36;;;;;;;4.38;2.53;;;17.90;71.60;;;;;;10498316;28;20036;-68
2021/10/02 13:28:51;;;;;;;3.75;2.58;;;17.90;72.10;;;;;;10497560;28;20048;-67
2021/10/02 13:34:07;;;;;;;4.57;3.03;;;17.90;72.20;;;;;;10496782;28;20060;-68
2021/10/02 13:39:16;;;;;;;3.28;2.42;;;17.90;72.20;;;;;;10497795;28;20033;-68
2021/10/02 13:44:32;;;;;;;3.00;2.55;;;17.90;72.30;;;;;;10496207;28;20388;-68
2021/10/02 13:49:32;;;;;;;4.03;2.50;;;17.90;72.30;;;;;;10510008;28;20032;-68
2021/10/02 13:54:33;;;;;;;3.30;2.53;;;17.90;72.30;;;;;;10497278;28;20364;-68
2021/10/02 13:59:35;;;;;;;3.78;2.65;;;17.90;72.40;;;;;;10496978;28;20082;-68
2021/10/02 14:04:36;;;;;;;3.97;2.58;;;17.90;72.40;;;;;;10496834;28;20029;-68
2021/10/02 14:09:37;;;;;;;3.83;2.85;;;17.90;72.40;;;;;;10496847;28;20033;-67
2021/10/02 14:14:40;;;;;;;3.67;2.33;;;17.90;72.50;;;;;;10495883;28;20027;-68
2021/10/02 14:19:40;;;;;;;3.13;2.25;;;17.90;72.50;;;;;;10495677;28;20032;-68
2021/10/02 14:24:41;;;;;;;3.25;2.00;;;17.90;72.60;;;;;;10496707;28;20028;-67
2021/10/02 14:29:43;;;;;;;3.40;2.72;;;17.90;72.50;;;;;;10496351;28;20028;-68
2021/10/02 14:34:46;;;;;;;2.65;1.95;;;17.90;72.50;;;;;;10488907;28;20086;-67
2021/10/02 14:39:48;;;;;;;6.68;2.33;;;17.80;72.50;;;;;;10505731;28;20067;-63
2021/10/02 14:44:49;;;;;;;13.23;3.33;;;17.80;72.30;;;;;;10495835;28;20032;-65
2021/10/02 14:49:50;;;;;;;11.52;3.13;;;17.90;72.40;;;;;;10490929;28;20040;-66
2021/10/02 14:54:53;;;;;;;12.20;3.40;;;17.90;72.60;;;;;;10496316;28;20063;-63
2021/10/02 14:59:54;;;;;;;10.77;3.17;;;17.90;72.80;;;;;;10494143;28;20056;-66
2021/10/02 15:04:54;;;;;;;13.18;3.78;;;17.90;72.80;;;;;;10481974;28;20036;-67
2021/10/02 15:09:59;;;;;;;16.80;3.65;;;18.00;72.70;;;;;;10497669;28;20032;-57
2021/10/02 15:15:00;;;;;;;13.93;3.42;;;18.00;72.70;;;;;;10497699;28;20025;-58
2021/10/02 15:20:01;;;;;;;14.57;3.70;;;18.00;73.00;;;;;;10489460;28;20033;-56
2021/10/02 15:25:12;;;;;;;20.00;3.90;;;18.10;73.40;;;;;;10495593;28;20170;-57
2021/10/02 15:30:13;;;;;;;13.70;4.00;;;18.10;73.30;;;;;;10496432;28;20031;-58
2021/10/02 15:35:14;;;;;;;11.80;3.47;;;18.20;73.30;;;;;;10501112;28;20050;-57
2021/10/02 15:40:17;;;;;;;16.60;4.13;;;18.10;73.10;;;;;;10497276;28;20029;-57
2021/10/02 15:45:21;;;;;;;33.50;5.60;;;18.10;73.10;;;;;;10501725;28;20078;-60
2021/10/02 15:50:24;;;;;;;28.48;6.22;;;18.10;72.50;;;;;;10500616;28;20063;-59
2021/10/02 15:55:25;;;;;;;26.73;10.25;;;18.30;74.00;;;;;;10500095;28;20481;-58
2021/10/02 16:00:27;;;;;;;23.90;5.88;;;18.30;76.30;;;;;;10499026;28;20056;-58
2021/10/02 16:05:47;;;;;;;13.63;4.20;;;18.20;77.70;;;;;;10479584;28;20521;-58
2021/10/02 16:10:48;;;;;;;;;;;18.20;74.40;;;;;;10498144;28;20070;-58
2021/10/02 16:15:49;;;;;;;19.20;4.28;;;18.30;76.80;;;;;;10477421;28;20391;-60
2021/10/02 16:20:50;;;;;;;22.00;4.03;;;18.40;75.10;;;;;;10498478;28;20025;-61
2021/10/02 16:25:51;;;;;;;13.23;3.85;;;18.50;74.90;;;;;;10500293;28;20036;-60
2021/10/02 16:30:52;;;;;;;21.25;3.70;;;18.50;74.80;;;;;;10481624;28;20373;-60
2021/10/02 16:35:52;;;;;;;11.80;3.90;;;18.50;74.60;;;;;;10497668;28;20056;-60
2021/10/02 16:40:54;;;;;;;14.95;3.22;;;18.40;74.00;;;;;;10499911;28;20032;-59
2021/10/02 16:45:55;;;;;;;19.10;4.40;;;18.50;73.90;;;;;;10498291;28;20119;-57
2021/10/02 16:50:56;;;;;;;13.05;4.10;;;18.40;74.20;;;;;;10511422;28;20036;-61
2021/10/02 16:55:57;;;;;;;13.88;4.15;;;18.30;74.20;;;;;;10481442;28;20029;-56
2021/10/02 17:00:57;;;;;;;20.13;3.72;;;18.20;73.80;;;;;;10486309;28;20465;-58
2021/10/02 17:05:58;;;;;;;15.13;3.47;;;18.40;73.50;;;;;;10496183;28;20111;-58
2021/10/02 17:10:59;;;;;;;18.63;3.92;;;18.30;73.80;;;;;;10497895;28;20158;-57
2021/10/02 17:16:00;;;;;;;11.00;3.17;;;18.20;74.10;;;;;;10498366;28;20032;-57
2021/10/02 17:21:01;;;;;;;12.88;3.60;;;18.20;74.20;;;;;;10512776;28;20028;-59
2021/10/02 17:26:03;;;;;;;15.15;3.58;;;18.20;73.90;;;;;;10488753;28;20044;-59
2021/10/02 17:31:05;;;;;;;14.27;3.05;;;18.10;73.60;;;;;;10482837;28;20066;-59
2021/10/02 17:36:05;;;;;;;9.50;3.28;;;18.10;73.90;;;;;;10483608;28;20090;-58
2021/10/02 17:41:06;;;;;;;8.40;2.45;;;18.00;73.90;;;;;;10487852;28;20070;-60
2021/10/02 17:46:07;;;;;;;10.80;3.33;;;18.00;73.90;;;;;;10477385;28;20032;-59
2021/10/02 17:51:08;;;;;;;9.07;3.00;;;18.00;74.10;;;;;;10488626;28;20465;-58
2021/10/02 17:56:09;;;;;;;6.72;2.65;;;17.90;74.10;;;;;;10492027;28;20028;-59
2021/10/02 18:01:12;;;;;;;7.55;2.65;;;17.90;74.10;;;;;;10490457;28;20138;-59
2021/10/02 18:06:13;;;;;;;7.30;2.92;;;17.90;74.10;;;;;;10473598;28;20098;-59
2021/10/02 18:11:13;;;;;;;7.43;2.45;;;17.90;74.10;;;;;;10482128;28;20089;-59
2021/10/02 18:16:14;;;;;;;6.32;2.50;;;17.90;73.90;;;;;;10490841;28;20029;-61
2021/10/02 18:21:15;;;;;;;12.40;3.25;;;17.90;73.80;;;;;;10494406;28;20037;-61
2021/10/02 18:26:20;;;;;;;9.30;2.97;;;18.00;73.60;;;;;;10493007;28;20124;-61
2021/10/02 18:31:21;;;;;;;14.65;3.25;;;18.00;73.40;;;;;;10495488;28;20036;-60
2021/10/02 18:36:21;;;;;;;11.75;2.70;;;18.00;73.50;;;;;;10484316;28;20064;-61
2021/10/02 18:41:22;;;;;;;12.90;2.78;;;18.00;73.60;;;;;;10494854;28;20024;-61
2021/10/02 18:46:23;;;;;;;11.27;2.83;;;18.00;73.80;;;;;;10486562;28;20082;-62
2021/10/02 18:51:24;;;;;;;8.63;2.90;;;18.00;73.90;;;;;;10484490;28;20029;-62
2021/10/02 18:56:25;;;;;;;7.00;3.08;;;18.00;73.90;;;;;;10468253;28;20426;-62
2021/10/02 19:01:25;;;;;;;9.30;2.47;;;18.00;74.00;;;;;;10500616;28;20036;-62
2021/10/02 19:06:26;;;;;;;7.18;2.72;;;18.00;74.00;;;;;;10503062;28;20036;-62
2021/10/02 19:11:27;;;;;;;8.48;2.92;;;18.00;74.10;;;;;;10496907;28;20029;-62
2021/10/02 19:16:28;;;;;;;7.65;2.63;;;18.00;74.10;;;;;;10484817;28;20060;-62
2021/10/02 19:21:29;;;;;;;12.43;2.25;;;18.00;74.20;;;;;;10501603;28;20036;-62
2021/10/02 19:26:29;;;;;;;8.50;2.53;;;18.00;74.20;;;;;;10488244;28;20758;-62
2021/10/02 19:31:30;;;;;;;6.68;2.47;;;18.00;74.40;;;;;;10496653;28;20048;-62
2021/10/02 19:36:32;;;;;;;11.55;2.45;;;18.00;74.30;;;;;;10499736;28;20477;-61
2021/10/02 19:41:35;;;;;;;8.93;2.35;;;18.00;74.30;;;;;;10500993;28;20040;-60
2021/10/02 19:46:37;;;;;;;6.32;2.90;;;18.00;74.10;;;;;;10500729;28;20485;-61
2021/10/02 19:51:38;;;;;;;5.22;2.10;;;18.00;74.30;;;;;;10512373;28;20029;-61
2021/10/02 19:56:39;;;;;;;4.75;2.08;;;17.90;74.30;;;;;;10499293;28;20032;-61
2021/10/02 20:01:39;;;;;;;6.80;2.00;;;17.90;74.40;;;;;;10499890;28;20358;-61
2021/10/02 20:06:40;;;;;;;3.60;1.60;;;17.90;74.50;;;;;;10493994;28;20423;-61
2021/10/02 20:11:41;;;;;;;5.07;2.25;;;17.90;74.60;;;;;;10497349;28;20436;-61
2021/10/02 20:16:41;;;;;;;4.22;2.03;;;17.80;74.50;;;;;;10513833;28;20123;-60
2021/10/02 20:21:43;;;;;;;4.57;1.77;;;17.80;74.50;;;;;;10481869;28;20431;-60
2021/10/02 20:26:44;;;;;;;6.15;2.00;;;17.80;74.50;;;;;;10499919;28;20040;-61
2021/10/02 20:31:44;;;;;;;4.22;1.83;;;17.80;74.40;;;;;;10498934;28;20484;-61
2021/10/02 20:36:45;;;;;;;8.55;2.50;;;17.80;74.50;;;;;;10500017;28;20437;-61
2021/10/02 20:41:47;;;;;;;3.75;1.77;;;17.80;74.50;;;;;;10499764;28;20476;-61
2021/10/02 20:46:47;;;;;;;3.35;1.80;;;17.80;74.50;;;;;;10498153;28;20028;-61
2021/10/02 20:51:49;;;;;;;2.40;1.70;;;17.80;74.40;;;;;;10510469;28;20036;-61
2021/10/02 20:56:50;;;;;;;4.03;1.75;;;17.80;74.50;;;;;;10497793;28;20043;-61
2021/10/02 21:01:51;;;;;;;3.42;1.60;;;17.80;74.50;;;;;;10497746;28;20532;-61
2021/10/02 21:06:52;;;;;;;4.43;1.60;;;17.80;74.50;;;;;;10496994;28;20121;-60
2021/10/02 21:11:53;;;;;;;4.68;1.77;;;17.80;74.50;;;;;;10497395;28;20025;-61
2021/10/02 21:16:53;;;;;;;2.65;1.75;;;17.80;74.40;;;;;;10497142;28;20452;-61
2021/10/02 21:21:54;;;;;;;2.35;1.63;;;17.80;74.50;;;;;;10496574;28;20028;-61
2021/10/02 21:26:56;;;;;;;2.55;1.50;;;17.80;74.40;;;;;;10496605;28;20043;-61
2021/10/02 21:31:59;;;;;;;2.13;1.30;;;17.70;74.30;;;;;;10496271;28;20041;-61
2021/10/02 21:37:01;;;;;;;3.72;1.40;;;17.80;74.40;;;;;;10507399;28;20111;-60
2021/10/02 21:42:03;;;;;;;4.47;1.63;;;17.70;74.30;;;;;;10479756;28;20028;-60
2021/10/02 21:47:04;;;;;;;3.40;1.48;;;17.70;74.30;;;;;;10479101;28;20459;-60
2021/10/02 21:52:06;;;;;;;2.35;1.35;;;17.70;74.30;;;;;;10508867;28;20073;-61
2021/10/02 21:57:08;;;;;;;4.70;2.42;;;17.70;74.30;;;;;;10497221;28;20115;-61
2021/10/02 22:02:09;;;;;;;3.40;2.05;;;17.70;74.30;;;;;;10495547;28;20055;-61
2021/10/02 22:07:10;;;;;;;4.53;1.42;;;17.70;74.30;;;;;;10495615;28;20108;-61
2021/10/02 22:12:11;;;;;;;2.72;1.50;;;17.70;74.20;;;;;;10495368;28;20024;-60
2021/10/02 22:17:12;;;;;;;2.40;1.40;;;17.70;74.30;;;;;;10495410;28;20113;-60
2021/10/02 22:22:13;;;;;;;2.40;1.23;;;17.70;74.30;;;;;;10478834;28;20028;-60
2021/10/02 22:27:13;;;;;;;5.03;2.08;;;17.70;74.20;;;;;;10495486;28;20035;-60
2021/10/02 22:32:14;;;;;;;4.57;1.30;;;17.70;74.30;;;;;;10494943;28;20041;-61
2021/10/02 22:37:15;;;;;;;1.75;0.98;;;17.70;74.20;;;;;;10498335;28;20067;-60
2021/10/02 22:42:20;;;;;;;1.92;1.20;;;17.70;74.20;;;;;;10503378;28;20032;-61
2021/10/02 22:47:22;;;;;;;8.73;1.75;;;17.70;74.20;;;;;;10503109;28;20036;-61
2021/10/02 22:52:23;;;;;;;2.20;1.30;;;17.70;74.10;;;;;;10516297;28;20393;-60
2021/10/02 22:57:25;;;;;;;2.83;1.30;;;17.70;74.10;;;;;;10502846;28;20039;-60
2021/10/02 23:02:26;;;;;;;2.78;1.05;;;17.70;74.10;;;;;;10502291;28;20032;-60
2021/10/02 23:07:28;;;;;;;3.40;1.55;;;17.70;74.10;;;;;;10502065;28;20067;-60
2021/10/02 23:12:29;;;;;;;1.45;0.93;;;17.70;74.10;;;;;;10502074;28;20071;-60
2021/10/02 23:17:31;;;;;;;3.53;1.65;;;17.70;74.10;;;;;;10501987;28;20119;-60
2021/10/02 23:22:34;;;;;;;1.73;1.20;;;17.70;74.10;;;;;;10501601;28;20024;-61
2021/10/02 23:27:42;;;;;;;2.92;1.27;;;17.70;74.10;;;;;;10478266;28;20063;-61
2021/10/02 23:32:47;;;;;;;2.63;1.17;;;17.70;74.10;;;;;;10500409;28;20056;-60
2021/10/02 23:37:47;;;;;;;2.20;1.25;;;17.70;74.00;;;;;;10484725;28;20024;-60
2021/10/02 23:42:48;;;;;;;2.70;1.52;;;17.70;74.00;;;;;;10498408;28;20111;-60
2021/10/02 23:47:49;;;;;;;2.15;1.00;;;17.70;74.00;;;;;;10497833;28;20036;-60
2021/10/02 23:53:01;;;;;;;2.88;1.33;;;17.70;74.10;;;;;;10510365;28;20066;-60
2021/10/02 23:58:03;;;;;;;1.67;1.00;;;17.70;74.10;;;;;;10498097;28;20034;-60
